ESMS/MMX METAR and TAF weather

Enter ICAO airport designator
Station Type Date Time Source
ESMS METAR 2020/11/27 01:50 UTC NOAA

ESMS 270150Z 30006KT 9999 FEW007 BKN016 04/04 Q1018


Station Type Date Time Source
ESMS Decoded METAR 2020/11/27 01:50 UTC NOAA

Malmo / Sturup, Sweden (ESMS) 55-33N 013-22E
Nov 26, 2020 - 08:50 PM EST / 2020.11.27 0150 UTC
Wind: from the WNW (300 degrees) at 7 MPH (6 KT):0
Visibility: greater than 7 mile(s):0
Sky conditions: mostly cloudy
Temperature: 39 F (4 C)
Dew Point: 39 F (4 C)
Relative Humidity: 100%
Pressure (altimeter): 30.06 in. Hg (1018 hPa)
ob: ESMS 270150Z 30006KT 9999 FEW007 BKN016 04/04 Q1018
cycle: 2

Station Type Date Time Source
ESMS TAF 2020/11/26 21:54 UTC NOAA

TAF
AMD TAF
AMD ESMS 262200Z 2621/2718 28006KT 9999 FEW008 SCT020
TEMPO 2622/2703 BKN008
BECMG 2703/2705 0100 FG VV001
TEMPO 2705/2718 3000 BR BKN005

Example: see airport list